createdAt,value
2023-05-05T00:00:19.092Z,6.800
2023-05-05T00:01:19.495Z,6.300
2023-05-05T00:02:19.889Z,6.000
2023-05-05T00:03:19.448Z,6.700
2023-05-05T00:04:20.056Z,6.300
2023-05-05T00:05:19.189Z,6.600
2023-05-05T00:06:19.349Z,6.500
2023-05-05T00:07:19.497Z,6.900
2023-05-05T00:08:19.705Z,6.800
2023-05-05T00:09:18.818Z,6.100
2023-05-05T00:10:19.008Z,7.100
2023-05-05T00:11:19.171Z,6.900
2023-05-05T00:12:19.371Z,7.100
2023-05-05T00:13:19.573Z,6.800
2023-05-05T00:14:19.759Z,6.600
2023-05-05T00:15:18.919Z,6.800
2023-05-05T00:16:19.058Z,7.500
2023-05-05T00:17:19.542Z,7.200
2023-05-05T00:18:19.955Z,6.300
2023-05-05T00:19:19.106Z,7.000
2023-05-05T00:20:19.279Z,7.100
2023-05-05T00:21:19.515Z,6.600
2023-05-05T00:22:19.620Z,6.100
2023-05-05T00:23:18.808Z,6.400
2023-05-05T00:24:18.977Z,7.100
2023-05-05T00:25:19.153Z,6.600
2023-05-05T00:26:19.300Z,6.500
2023-05-05T00:27:19.452Z,5.700
2023-05-05T00:28:19.679Z,6.500
2023-05-05T00:29:18.804Z,6.500
2023-05-05T00:30:19.018Z,6.400
2023-05-05T00:31:19.508Z,7.300
2023-05-05T00:32:19.703Z,6.900
2023-05-05T00:34:19.328Z,6.700
2023-05-05T00:35:19.472Z,6.300
2023-05-05T00:36:19.709Z,6.900
2023-05-05T00:37:18.888Z,7.200
2023-05-05T00:38:19.163Z,7.300
2023-05-05T00:39:19.267Z,7.200
2023-05-05T00:40:19.799Z,7.000
2023-05-05T00:41:18.975Z,6.400
2023-05-05T00:42:19.268Z,6.600
2023-05-05T00:43:19.492Z,7.100
2023-05-05T00:44:19.624Z,6.600
2023-05-05T00:45:19.805Z,7.100
2023-05-05T00:46:19.050Z,6.700
2023-05-05T00:47:19.336Z,6.600
2023-05-05T00:48:20.091Z,6.400
2023-05-05T00:49:19.521Z,6.600
2023-05-05T00:50:19.754Z,6.800
2023-05-05T00:51:18.857Z,6.700
2023-05-05T00:52:19.062Z,7.300
2023-05-05T00:53:19.209Z,6.700
2023-05-05T00:54:19.408Z,7.000
2023-05-05T00:55:19.612Z,7.100
2023-05-05T00:56:19.052Z,6.400
2023-05-05T00:57:19.100Z,7.000
2023-05-05T00:58:19.304Z,6.800
2023-05-05T00:59:19.486Z,7.300
2023-05-05T01:00:19.875Z,6.700
2023-05-05T01:01:19.217Z,6.900
2023-05-05T01:02:19.609Z,6.200
2023-05-05T01:03:19.306Z,6.600
2023-05-05T01:04:19.927Z,7.300
2023-05-05T01:05:19.163Z,7.400
2023-05-05T01:06:19.327Z,6.300
2023-05-05T01:07:19.614Z,6.700
2023-05-05T01:08:19.752Z,7.700
2023-05-05T01:09:18.883Z,6.700
2023-05-05T01:10:29.390Z,7.100
2023-05-05T01:13:19.003Z,7.000
2023-05-05T01:14:19.213Z,7.300
2023-05-05T01:15:19.340Z,7.200
2023-05-05T01:16:19.745Z,6.800
2023-05-05T01:17:18.946Z,7.100
2023-05-05T01:18:19.449Z,7.400
2023-05-05T01:19:19.581Z,6.700
2023-05-05T01:20:19.787Z,7.100
2023-05-05T01:21:18.997Z,6.500
2023-05-05T01:22:19.145Z,6.600
2023-05-05T01:23:19.364Z,6.600
2023-05-05T01:24:19.484Z,7.200
2023-05-05T01:25:19.641Z,7.200
2023-05-05T01:26:19.823Z,7.300
2023-05-05T01:27:18.922Z,6.600
2023-05-05T01:28:19.262Z,7.000
2023-05-05T01:29:19.495Z,7.000
2023-05-05T01:30:19.732Z,6.800
2023-05-05T01:31:19.015Z,6.400
2023-05-05T01:32:19.307Z,7.000
2023-05-05T01:33:19.573Z,7.200
2023-05-05T01:34:19.668Z,7.700
2023-05-05T01:35:18.791Z,7.000
2023-05-05T01:36:19.048Z,7.000
2023-05-05T01:37:19.372Z,6.400
2023-05-05T01:38:19.646Z,7.400
2023-05-05T01:39:18.830Z,7.500
2023-05-05T01:40:19.051Z,7.300
2023-05-05T01:41:19.252Z,7.200
2023-05-05T01:42:19.421Z,6.900
2023-05-05T01:43:19.720Z,6.600
2023-05-05T01:44:18.897Z,6.400
2023-05-05T01:45:19.100Z,7.400
2023-05-05T01:46:19.691Z,6.600
2023-05-05T01:47:18.868Z,7.300
2023-05-05T01:48:19.152Z,7.100
2023-05-05T01:49:19.368Z,7.700
2023-05-05T01:50:19.729Z,7.300
2023-05-05T01:51:18.812Z,8.000
2023-05-05T01:52:19.096Z,7.000
2023-05-05T01:53:19.265Z,7.900
2023-05-05T01:54:19.457Z,7.900
2023-05-05T01:55:19.602Z,7.100
2023-05-05T01:56:18.896Z,7.300
2023-05-05T01:57:19.090Z,6.700
2023-05-05T01:58:19.295Z,7.200
2023-05-05T01:59:19.616Z,6.600
2023-05-05T02:00:19.829Z,6.800
2023-05-05T02:01:19.189Z,6.300
2023-05-05T02:02:19.605Z,6.500
2023-05-05T02:04:19.230Z,6.200
2023-05-05T02:05:19.367Z,6.600
2023-05-05T02:06:19.627Z,6.900
2023-05-05T02:07:18.752Z,7.500
2023-05-05T02:08:18.884Z,6.700
2023-05-05T02:09:19.058Z,7.000
2023-05-05T02:10:19.223Z,6.500
2023-05-05T02:11:19.402Z,7.400
2023-05-05T02:12:19.563Z,7.300
2023-05-05T02:13:20.572Z,7.200
2023-05-05T02:14:18.839Z,7.200
2023-05-05T02:15:19.112Z,7.100
2023-05-05T02:16:19.633Z,6.800
2023-05-05T02:17:18.924Z,6.700
2023-05-05T02:18:19.256Z,7.100
2023-05-05T02:19:19.395Z,6.800
2023-05-05T02:20:19.491Z,7.500
2023-05-05T02:21:19.711Z,6.700
2023-05-05T02:22:18.815Z,6.700
2023-05-05T02:23:18.988Z,6.800
2023-05-05T02:24:19.352Z,7.000
2023-05-05T02:25:19.493Z,7.800
2023-05-05T02:26:19.677Z,7.600
2023-05-05T02:27:18.822Z,6.800
2023-05-05T02:28:18.940Z,7.200
2023-05-05T02:29:19.115Z,6.600
2023-05-05T02:30:19.287Z,6.400
2023-05-05T02:31:19.720Z,7.400
2023-05-05T02:32:19.080Z,7.000
2023-05-05T02:33:19.413Z,7.200
2023-05-05T02:34:19.579Z,7.300
2023-05-05T02:35:19.764Z,6.900
2023-05-05T02:36:18.891Z,6.700
2023-05-05T02:37:19.037Z,7.000
2023-05-05T02:38:19.235Z,7.700
2023-05-05T02:39:19.411Z,7.000
2023-05-05T02:40:19.628Z,6.700
2023-05-05T02:41:19.809Z,7.100
2023-05-05T02:42:18.947Z,7.400
2023-05-05T02:43:19.420Z,6.700
2023-05-05T02:44:19.684Z,6.600
2023-05-05T02:45:18.915Z,7.000
2023-05-05T02:46:19.227Z,6.200
2023-05-05T02:47:19.395Z,6.500
2023-05-05T02:48:19.682Z,7.100
2023-05-05T02:49:19.705Z,8.000
2023-05-05T02:50:18.871Z,7.300
2023-05-05T02:51:19.052Z,7.200
2023-05-05T02:52:19.237Z,7.500
2023-05-05T02:53:19.384Z,7.000
2023-05-05T02:54:19.562Z,7.200
2023-05-05T02:55:19.728Z,7.200
2023-05-05T02:56:18.928Z,7.300
2023-05-05T02:57:19.020Z,7.400
2023-05-05T02:58:19.251Z,6.800
2023-05-05T02:59:19.652Z,6.900
2023-05-05T03:00:18.756Z,7.700
2023-05-05T03:01:19.028Z,6.600
2023-05-05T03:02:19.458Z,7.100
2023-05-05T03:03:20.183Z,7.600
2023-05-05T03:04:19.371Z,7.200
2023-05-05T03:05:19.849Z,6.400
2023-05-05T03:06:19.025Z,6.600
2023-05-05T03:07:19.203Z,7.200
2023-05-05T03:08:19.463Z,7.100
2023-05-05T03:09:19.640Z,7.500
2023-05-05T03:10:19.110Z,7.500
2023-05-05T03:11:19.319Z,6.900
2023-05-05T03:12:19.451Z,7.400
2023-05-05T03:13:19.809Z,6.800
2023-05-05T03:14:18.948Z,7.100
2023-05-05T03:15:19.132Z,7.000
2023-05-05T03:16:19.511Z,7.600
2023-05-05T03:17:19.851Z,6.700
2023-05-05T03:18:19.201Z,7.300
2023-05-05T03:19:19.429Z,6.400
2023-05-05T03:20:22.344Z,7.400
2023-05-05T03:21:19.473Z,6.800
2023-05-05T03:22:19.593Z,6.900
2023-05-05T03:23:19.743Z,6.800
2023-05-05T03:24:19.002Z,7.100
2023-05-05T03:25:19.210Z,6.600
2023-05-05T03:26:19.473Z,6.300
2023-05-05T03:27:18.960Z,6.800
2023-05-05T03:28:19.068Z,6.900
2023-05-05T03:29:19.260Z,7.000
2023-05-05T03:30:19.500Z,5.900
2023-05-05T03:31:19.768Z,6.500
2023-05-05T03:32:19.264Z,6.700
2023-05-05T03:33:19.622Z,7.300
2023-05-05T03:34:19.796Z,7.300
2023-05-05T03:35:18.989Z,7.300
2023-05-05T03:36:19.122Z,7.100
2023-05-05T03:37:19.210Z,6.600
2023-05-05T03:38:19.396Z,6.600
2023-05-05T03:39:19.677Z,7.000
2023-05-05T03:40:18.912Z,8.100
2023-05-05T03:41:20.795Z,7.100
2023-05-05T03:42:18.844Z,6.300
2023-05-05T03:43:19.070Z,5.700
2023-05-05T03:44:19.251Z,6.700
2023-05-05T03:45:19.379Z,6.900
2023-05-05T03:46:19.947Z,6.900
2023-05-05T03:47:19.073Z,7.200
2023-05-05T03:48:19.372Z,7.200
2023-05-05T03:49:20.036Z,7.000
2023-05-05T03:50:19.196Z,7.300
2023-05-05T03:51:19.536Z,6.900
2023-05-05T03:52:19.721Z,6.400
2023-05-05T03:53:18.828Z,6.900
2023-05-05T03:54:19.007Z,6.300
2023-05-05T03:55:19.233Z,6.700
2023-05-05T03:56:19.444Z,7.800
2023-05-05T03:57:19.610Z,7.100
2023-05-05T03:58:19.772Z,7.200
2023-05-05T03:59:18.944Z,7.000
2023-05-05T04:00:19.404Z,6.800
2023-05-05T04:01:19.629Z,8.000
2023-05-05T04:02:21.656Z,7.000
2023-05-05T04:05:18.871Z,6.800
2023-05-05T04:06:19.016Z,6.700
2023-05-05T04:07:19.225Z,6.700
2023-05-05T04:08:19.380Z,7.700
2023-05-05T04:09:19.593Z,6.800
2023-05-05T04:10:18.814Z,7.000
2023-05-05T04:11:19.072Z,7.200
2023-05-05T04:12:19.255Z,7.200
2023-05-05T04:13:19.752Z,6.900
2023-05-05T04:14:18.896Z,7.100
2023-05-05T04:15:19.121Z,7.100
2023-05-05T04:16:19.619Z,7.000
2023-05-05T04:17:18.747Z,7.200
2023-05-05T04:18:19.369Z,7.300
2023-05-05T04:19:19.544Z,7.000
2023-05-05T04:20:19.751Z,6.800
2023-05-05T04:21:18.903Z,6.700
2023-05-05T04:22:19.094Z,7.200
2023-05-05T04:23:19.266Z,7.600
2023-05-05T04:24:19.420Z,6.900
2023-05-05T04:25:19.740Z,6.800
2023-05-05T04:26:18.936Z,6.700
2023-05-05T04:27:19.029Z,6.500
2023-05-05T04:28:21.957Z,7.000
2023-05-05T04:29:19.209Z,6.200
2023-05-05T04:30:19.454Z,7.200
2023-05-05T04:31:20.082Z,7.000
2023-05-05T04:32:19.392Z,6.700
2023-05-05T04:33:19.760Z,7.200
2023-05-05T04:34:18.929Z,6.900
2023-05-05T04:35:19.166Z,7.000
2023-05-05T04:36:19.274Z,6.900
2023-05-05T04:37:19.398Z,6.500
2023-05-05T04:38:19.713Z,7.100
2023-05-05T04:39:18.888Z,6.600
2023-05-05T04:40:19.088Z,6.300
2023-05-05T04:41:19.304Z,6.700
2023-05-05T04:42:19.497Z,6.600
2023-05-05T04:43:19.611Z,6.600
2023-05-05T04:44:19.735Z,6.900
2023-05-05T04:45:18.852Z,7.100
2023-05-05T04:46:19.122Z,6.500
2023-05-05T04:47:19.344Z,5.700
2023-05-05T04:48:19.669Z,6.000
2023-05-05T04:50:19.059Z,6.500
2023-05-05T04:51:19.224Z,5.800
2023-05-05T04:52:19.407Z,6.200
2023-05-05T04:53:19.538Z,6.200
2023-05-05T04:54:19.752Z,6.600
2023-05-05T04:55:18.885Z,6.900
2023-05-05T04:56:19.089Z,6.900
2023-05-05T04:57:19.367Z,6.600
2023-05-05T04:58:19.625Z,6.100
2023-05-05T04:59:18.784Z,6.500
2023-05-05T05:00:19.084Z,6.500
2023-05-05T05:01:19.357Z,6.900
2023-05-05T05:02:20.013Z,6.100
2023-05-05T05:03:19.813Z,6.600
2023-05-05T05:04:19.150Z,6.400
2023-05-05T05:05:19.346Z,7.400
2023-05-05T05:06:19.584Z,6.400
2023-05-05T05:07:20.407Z,6.900
2023-05-05T05:08:19.592Z,6.600
2023-05-05T05:09:18.780Z,6.600
2023-05-05T05:10:18.972Z,7.200
2023-05-05T05:11:19.213Z,6.800
2023-05-05T05:12:19.537Z,6.500
2023-05-05T05:13:20.243Z,6.000
2023-05-05T05:14:19.444Z,6.700
2023-05-05T05:15:19.620Z,7.300
2023-05-05T05:16:19.884Z,7.200
2023-05-05T05:17:19.004Z,6.900
2023-05-05T05:18:19.301Z,7.100
2023-05-05T05:19:20.621Z,7.800
2023-05-05T05:20:18.882Z,6.400
2023-05-05T05:21:19.126Z,6.800
2023-05-05T05:22:19.386Z,7.200
2023-05-05T05:23:19.597Z,7.700
2023-05-05T05:24:19.845Z,7.300
2023-05-05T05:25:19.052Z,7.500
2023-05-05T05:26:19.305Z,6.800
2023-05-05T05:27:19.538Z,7.000
2023-05-05T05:28:27.467Z,7.300
2023-05-05T05:31:18.819Z,7.100
2023-05-05T05:32:19.412Z,7.500
2023-05-05T05:33:19.845Z,7.000
2023-05-05T05:34:19.046Z,6.400
2023-05-05T05:35:19.355Z,7.300
2023-05-05T05:36:19.543Z,6.500
2023-05-05T05:37:19.768Z,6.000
2023-05-05T05:38:18.930Z,5.900
2023-05-05T05:39:19.026Z,5.900
2023-05-05T05:40:19.884Z,5.900
2023-05-05T05:41:19.063Z,6.100
2023-05-05T05:42:19.224Z,6.500
2023-05-05T05:43:19.351Z,6.100
2023-05-05T05:44:19.553Z,7.000
2023-05-05T05:45:19.753Z,5.900
2023-05-05T05:46:19.227Z,6.000
2023-05-05T05:47:19.413Z,6.100
2023-05-05T05:48:19.576Z,6.400
2023-05-05T05:49:19.749Z,6.300
2023-05-05T05:50:19.009Z,6.500
2023-05-05T05:51:19.247Z,6.100
2023-05-05T05:52:19.404Z,6.800
2023-05-05T05:53:19.616Z,6.100
2023-05-05T05:54:20.251Z,6.300
2023-05-05T05:55:19.493Z,6.300
2023-05-05T05:56:19.663Z,6.600
2023-05-05T05:57:18.884Z,6.200
2023-05-05T05:58:19.090Z,6.200
2023-05-05T05:59:19.248Z,5.600
2023-05-05T06:00:20.952Z,6.400
2023-05-05T06:01:19.004Z,6.400
2023-05-05T06:02:19.393Z,6.600
2023-05-05T06:03:20.842Z,6.300
2023-05-05T06:04:19.343Z,6.300
2023-05-05T06:05:19.505Z,7.000
2023-05-05T06:06:19.843Z,6.400
2023-05-05T06:07:18.951Z,5.500
2023-05-05T06:08:19.119Z,5.900
2023-05-05T06:09:19.314Z,6.100
2023-05-05T06:10:31.763Z,6.400
2023-05-05T06:14:22.943Z,5.900
2023-05-05T06:18:20.343Z,6.200
2023-05-05T06:19:20.565Z,5.700
2023-05-05T06:20:20.870Z,6.200
2023-05-05T06:21:20.057Z,6.700
2023-05-05T06:22:20.251Z,5.700
2023-05-05T06:23:20.504Z,6.600
2023-05-05T06:24:20.660Z,6.300
2023-05-05T06:25:19.870Z,6.700
2023-05-05T06:26:20.061Z,6.300
2023-05-05T06:27:20.232Z,6.700
2023-05-05T06:28:20.421Z,6.700
2023-05-05T06:29:20.617Z,6.600
2023-05-05T06:30:21.100Z,6.600
2023-05-05T06:31:20.618Z,6.600
2023-05-05T06:32:20.919Z,6.400
2023-05-05T06:33:20.108Z,6.100
2023-05-05T06:34:20.321Z,6.500
2023-05-05T06:35:20.534Z,6.800
2023-05-05T06:36:20.955Z,7.400
2023-05-05T06:37:20.036Z,6.900
2023-05-05T06:38:20.315Z,6.900
2023-05-05T06:39:20.492Z,6.900
2023-05-05T06:40:20.661Z,6.400
2023-05-05T06:41:19.877Z,7.500
2023-05-05T06:42:20.074Z,7.600
2023-05-05T06:43:20.288Z,7.000
2023-05-05T06:44:20.427Z,7.600
2023-05-05T06:45:20.623Z,7.600
2023-05-05T06:46:20.652Z,7.100
2023-05-05T06:47:20.125Z,6.600
2023-05-05T06:48:20.515Z,7.700
2023-05-05T06:49:20.704Z,6.900
2023-05-05T06:50:19.920Z,7.100
2023-05-05T06:51:20.546Z,6.400
2023-05-05T06:52:21.080Z,6.900
2023-05-05T06:53:20.256Z,7.600
2023-05-05T06:54:20.459Z,7.300
2023-05-05T06:55:20.871Z,7.500
2023-05-05T06:56:20.125Z,7.500
2023-05-05T06:57:20.358Z,8.500
2023-05-05T06:58:20.536Z,7.900
2023-05-05T06:59:20.676Z,8.000
2023-05-05T07:00:19.820Z,7.000
2023-05-05T07:01:20.511Z,8.400
2023-05-05T07:02:20.756Z,7.500
2023-05-05T07:03:20.396Z,8.600
2023-05-05T07:04:20.935Z,9.600
2023-05-05T07:05:20.107Z,8.000
2023-05-05T07:06:20.356Z,9.300
2023-05-05T07:07:20.564Z,9.100
2023-05-05T07:08:21.016Z,8.300
2023-05-05T07:09:20.696Z,7.700
2023-05-05T07:10:19.836Z,9.000
2023-05-05T07:11:21.761Z,8.900
2023-05-05T07:14:22.064Z,8.300
2023-05-05T07:15:32.317Z,9.300
2023-05-05T07:18:19.966Z,9.100
2023-05-05T07:19:20.152Z,7.900
2023-05-05T07:20:20.308Z,8.900
2023-05-05T07:21:20.592Z,8.600
2023-05-05T07:22:21.083Z,7.900
2023-05-05T07:23:20.279Z,8.400
2023-05-05T07:24:20.596Z,8.800
2023-05-05T07:25:20.981Z,9.300
2023-05-05T07:26:20.353Z,9.500
2023-05-05T07:27:20.665Z,8.300
2023-05-05T07:28:19.836Z,8.700
2023-05-05T07:29:20.027Z,8.200
2023-05-05T07:30:23.813Z,6.900
2023-05-05T07:34:20.092Z,9.300
2023-05-05T07:35:20.294Z,9.400
2023-05-05T07:36:20.470Z,8.700
2023-05-05T07:37:20.873Z,8.400
2023-05-05T07:38:20.123Z,8.300
2023-05-05T07:39:20.313Z,8.200
2023-05-05T07:40:20.653Z,8.200
2023-05-05T07:41:19.976Z,9.400
2023-05-05T07:42:20.684Z,8.800
2023-05-05T07:43:20.088Z,8.500
2023-05-05T07:44:20.902Z,9.500
2023-05-05T07:45:20.144Z,9.300
2023-05-05T07:46:20.829Z,8.500
2023-05-05T07:47:20.117Z,8.200
2023-05-05T07:48:20.823Z,8.500
2023-05-05T07:49:20.159Z,9.200
2023-05-05T07:50:20.410Z,8.600
2023-05-05T07:51:21.061Z,7.800
2023-05-05T07:52:30.248Z,9.500
2023-05-05T07:53:32.248Z,8.700
2023-05-05T07:55:20.804Z,8.900
2023-05-05T07:56:21.832Z,8.800
2023-05-05T07:57:20.163Z,8.900
2023-05-05T07:58:20.403Z,9.500
2023-05-05T07:59:20.632Z,8.500
2023-05-05T08:00:19.871Z,9.700
2023-05-05T08:01:20.181Z,9.800
2023-05-05T08:02:20.472Z,9.200
2023-05-05T08:03:21.698Z,9.200
2023-05-05T08:04:20.163Z,9.900
2023-05-05T08:05:20.583Z,10.600
2023-05-05T08:06:20.751Z,11.100
2023-05-05T08:07:20.138Z,11.000
2023-05-05T08:08:20.292Z,11.700
2023-05-05T08:09:20.618Z,11.400
2023-05-05T08:10:19.806Z,11.300
2023-05-05T08:11:19.999Z,10.900
2023-05-05T08:12:20.216Z,10.500
2023-05-05T08:13:20.823Z,10.400
2023-05-05T08:14:19.961Z,11.100
2023-05-05T08:15:20.144Z,11.000
2023-05-05T08:16:21.111Z,11.100
2023-05-05T08:17:22.016Z,11.000
2023-05-05T08:18:20.401Z,10.900
2023-05-05T08:19:31.059Z,10.400
2023-05-05T08:20:20.226Z,11.100
2023-05-05T08:21:20.396Z,11.200
2023-05-05T08:22:20.650Z,10.700
2023-05-05T08:23:19.851Z,10.500
2023-05-05T08:24:20.104Z,12.300
2023-05-05T08:25:20.297Z,12.500
2023-05-05T08:26:20.447Z,12.700
2023-05-05T08:27:20.704Z,11.900
2023-05-05T08:28:19.937Z,12.000
2023-05-05T08:29:20.129Z,12.800
2023-05-05T08:30:20.647Z,12.500
2023-05-05T08:31:19.863Z,11.700
2023-05-05T08:32:20.154Z,11.000
2023-05-05T08:33:20.792Z,13.000
2023-05-05T08:34:19.982Z,12.000
2023-05-05T08:35:20.261Z,13.000
2023-05-05T08:36:20.448Z,11.300
2023-05-05T08:37:20.657Z,12.500
2023-05-05T08:38:19.860Z,11.700
2023-05-05T08:39:20.269Z,12.000
2023-05-05T08:40:20.577Z,12.200
2023-05-05T08:41:20.204Z,12.100
2023-05-05T08:42:36.812Z,12.100
2023-05-05T08:44:23.388Z,12.100
2023-05-05T08:45:24.004Z,11.300
2023-05-05T08:46:23.415Z,11.300
2023-05-05T08:47:23.807Z,11.000
2023-05-05T08:48:23.070Z,11.200
2023-05-05T08:49:23.348Z,11.400
2023-05-05T08:50:23.664Z,11.500
2023-05-05T08:51:24.293Z,10.800
2023-05-05T08:52:23.520Z,10.400
2023-05-05T08:53:26.650Z,11.100
2023-05-05T08:58:23.626Z,10.700
2023-05-05T08:59:22.811Z,10.600
2023-05-05T09:00:23.169Z,12.100
2023-05-05T09:01:23.774Z,10.800
2023-05-05T09:02:23.393Z,10.700
2023-05-05T09:03:24.441Z,11.000
2023-05-05T09:04:23.633Z,11.500
2023-05-05T09:05:22.814Z,11.800
2023-05-05T09:06:23.214Z,10.300
2023-05-05T09:07:23.450Z,9.900
2023-05-05T09:08:23.685Z,11.900
2023-05-05T09:09:23.002Z,10.800
2023-05-05T09:10:23.366Z,10.700
2023-05-05T09:11:23.584Z,10.600
2023-05-05T09:12:24.013Z,12.600
2023-05-05T09:13:23.404Z,12.900
2023-05-05T09:14:23.614Z,12.500
2023-05-05T09:15:24.739Z,12.800
2023-05-05T09:16:23.034Z,10.900
2023-05-05T09:17:23.452Z,12.000
2023-05-05T09:18:24.068Z,10.500
2023-05-05T09:19:23.260Z,12.300
2023-05-05T09:20:23.655Z,12.600
2023-05-05T09:21:22.832Z,12.500
2023-05-05T09:22:23.190Z,12.900
2023-05-05T09:23:23.592Z,11.200
2023-05-05T09:24:27.539Z,11.800
2023-05-05T09:28:23.655Z,11.800
2023-05-05T09:29:22.850Z,10.600
2023-05-05T09:30:23.170Z,11.900
2023-05-05T09:31:23.522Z,12.300
2023-05-05T09:32:23.809Z,11.900
2023-05-05T09:33:23.123Z,12.700
2023-05-05T09:34:23.360Z,11.100
2023-05-05T09:35:23.833Z,13.300
2023-05-05T09:36:23.018Z,11.300
2023-05-05T09:37:23.480Z,13.000
2023-05-05T09:38:23.831Z,11.000
2023-05-05T09:39:23.392Z,11.900
2023-05-05T09:40:24.081Z,12.700
2023-05-05T09:41:23.245Z,11.800
2023-05-05T09:42:23.493Z,11.300
2023-05-05T09:43:23.699Z,11.800
2023-05-05T09:44:22.901Z,11.800
2023-05-05T09:45:23.249Z,11.600
2023-05-05T09:46:23.861Z,10.900
2023-05-05T09:47:35.243Z,11.000
2023-05-05T09:50:24.252Z,11.300
2023-05-05T09:51:23.402Z,10.500
2023-05-05T09:52:23.603Z,9.900
2023-05-05T09:53:24.347Z,10.200
2023-05-05T09:54:23.579Z,11.000
2023-05-05T09:55:23.790Z,11.200
2023-05-05T09:56:22.976Z,11.100
2023-05-05T09:57:23.150Z,10.900
2023-05-05T09:58:23.900Z,11.300
2023-05-05T09:59:23.161Z,11.800
2023-05-05T10:00:24.051Z,12.200
2023-05-05T10:01:23.302Z,11.900
2023-05-05T10:02:23.765Z,11.700
2023-05-05T10:04:23.427Z,11.200
2023-05-05T10:05:24.324Z,12.400
2023-05-05T10:06:23.573Z,10.700
2023-05-05T10:07:23.847Z,10.600
2023-05-05T10:08:23.111Z,12.000
2023-05-05T10:09:23.357Z,10.800
2023-05-05T10:10:23.964Z,12.300
2023-05-05T10:11:23.093Z,11.700
2023-05-05T10:12:23.288Z,12.600
2023-05-05T10:13:23.791Z,11.400
2023-05-05T10:14:23.073Z,11.800
2023-05-05T10:15:23.367Z,10.900
2023-05-05T10:16:23.888Z,11.800
2023-05-05T10:17:23.168Z,12.000
2023-05-05T10:20:23.316Z,12.800
2023-05-05T10:21:23.714Z,11.200
2023-05-05T10:22:22.927Z,12.400
2023-05-05T10:23:23.219Z,11.800
2023-05-05T10:24:23.501Z,13.500
2023-05-05T10:25:23.779Z,12.600
2023-05-05T10:26:23.057Z,14.000
2023-05-05T10:27:23.237Z,13.000
2023-05-05T10:28:23.543Z,13.300
2023-05-05T10:29:23.768Z,13.100
2023-05-05T10:30:23.181Z,11.600
2023-05-05T10:31:30.075Z,13.400
2023-05-05T10:32:54.273Z,12.300
2023-05-05T10:35:28.897Z,12.200
2023-05-05T10:36:29.205Z,12.500
2023-05-05T10:37:29.614Z,12.700
2023-05-05T10:38:30.058Z,12.800
2023-05-05T10:39:29.245Z,12.200
2023-05-05T10:40:29.724Z,11.500
2023-05-05T10:41:28.920Z,12.200
2023-05-05T10:42:29.184Z,13.000
2023-05-05T10:43:29.524Z,12.400
2023-05-05T10:44:29.766Z,13.100
2023-05-05T10:45:29.222Z,12.200
2023-05-05T10:46:30.089Z,12.100
2023-05-05T10:47:29.348Z,11.200
2023-05-05T10:48:29.960Z,11.400
2023-05-05T10:49:31.781Z,13.700
2023-05-05T10:50:28.967Z,12.200
2023-05-05T10:51:40.270Z,13.200
2023-05-05T10:56:28.975Z,12.900
2023-05-05T10:57:29.280Z,11.700
2023-05-05T10:58:29.560Z,13.600
2023-05-05T10:59:34.648Z,13.500
2023-05-05T11:02:30.184Z,11.900
2023-05-05T11:03:30.213Z,13.100
2023-05-05T11:04:29.517Z,12.900
2023-05-05T11:05:29.708Z,12.400
2023-05-05T11:06:28.989Z,11.400
2023-05-05T11:07:33.009Z,12.100
2023-05-05T11:10:29.944Z,12.600
2023-05-05T11:11:29.151Z,12.800
2023-05-05T11:12:29.370Z,11.700
2023-05-05T11:13:29.801Z,11.500
2023-05-05T11:14:28.964Z,10.500
2023-05-05T11:15:29.483Z,11.300
2023-05-05T11:16:30.075Z,10.900
2023-05-05T11:17:29.378Z,10.900
2023-05-05T11:18:29.669Z,12.300
2023-05-05T11:19:28.872Z,11.600
2023-05-05T11:20:29.283Z,11.100
2023-05-05T11:21:29.483Z,11.000
2023-05-05T11:22:29.781Z,10.600
2023-05-05T11:23:30.094Z,10.700
2023-05-05T11:24:29.404Z,11.500
2023-05-05T11:25:29.566Z,10.500
2023-05-05T11:26:29.708Z,10.500
2023-05-05T11:27:28.875Z,11.000
2023-05-05T11:28:29.287Z,9.600
2023-05-05T11:29:29.940Z,10.300
2023-05-05T11:30:29.635Z,10.600
2023-05-05T11:31:29.064Z,10.800
2023-05-05T11:32:29.718Z,11.600
2023-05-05T11:33:28.901Z,11.500
2023-05-05T11:34:29.075Z,11.300
2023-05-05T11:35:29.248Z,11.100
2023-05-05T11:36:29.433Z,11.000
2023-05-05T11:37:29.569Z,10.400
2023-05-05T11:38:29.860Z,10.400
2023-05-05T11:39:29.081Z,9.700
2023-05-05T11:40:29.584Z,9.800
2023-05-05T11:41:29.717Z,11.000
2023-05-05T11:42:29.713Z,10.000
2023-05-05T11:43:28.948Z,10.800
2023-05-05T11:44:29.150Z,11.300
2023-05-05T11:45:29.351Z,10.300
2023-05-05T11:46:29.836Z,10.800
2023-05-05T11:47:29.129Z,10.600
2023-05-05T11:48:29.536Z,10.100
2023-05-05T11:49:29.726Z,10.000
2023-05-05T11:50:29.153Z,10.500
2023-05-05T11:51:29.306Z,10.000
2023-05-05T11:52:29.616Z,9.800
2023-05-05T11:53:28.742Z,10.000
2023-05-05T11:54:28.895Z,10.700
2023-05-05T11:55:29.137Z,10.100
2023-05-05T11:56:29.396Z,10.900
2023-05-05T11:57:29.717Z,10.700
2023-05-05T11:58:28.900Z,11.100
2023-05-05T11:59:29.295Z,11.100
2023-05-05T12:00:29.917Z,11.900
2023-05-05T12:01:29.147Z,11.600
2023-05-05T12:02:30.239Z,10.500
2023-05-05T12:03:30.651Z,10.100
2023-05-05T12:04:29.645Z,10.400
2023-05-05T12:05:28.957Z,10.400
2023-05-05T12:06:29.162Z,10.200
2023-05-05T12:07:29.441Z,10.800
2023-05-05T12:08:29.628Z,10.000
2023-05-05T12:09:29.929Z,9.300
2023-05-05T12:10:29.688Z,9.300
2023-05-05T12:11:28.902Z,9.600
2023-05-05T12:12:29.448Z,10.100
2023-05-05T12:13:32.299Z,10.600
2023-05-05T12:14:29.390Z,11.300
2023-05-05T12:15:29.007Z,9.800
2023-05-05T12:16:29.479Z,10.100
2023-05-05T12:17:29.746Z,9.800
2023-05-05T12:18:29.055Z,8.600
2023-05-05T12:19:29.268Z,9.700
2023-05-05T12:20:30.555Z,9.000
2023-05-05T12:21:29.648Z,9.300
2023-05-05T12:22:28.776Z,9.600
2023-05-05T12:23:29.006Z,10.100
2023-05-05T12:24:29.247Z,10.400
2023-05-05T12:25:31.044Z,10.200
2023-05-05T12:26:29.279Z,9.900
2023-05-05T12:27:29.604Z,9.600
2023-05-05T12:28:29.744Z,10.300
2023-05-05T12:29:28.941Z,10.000
2023-05-05T12:30:29.349Z,9.900
2023-05-05T12:31:31.461Z,9.400
2023-05-05T12:33:29.198Z,8.100
2023-05-05T12:34:29.452Z,8.800
2023-05-05T12:35:29.721Z,8.900
2023-05-05T12:36:31.322Z,8.700
2023-05-05T12:38:29.755Z,8.100
2023-05-05T12:39:29.066Z,7.800
2023-05-05T12:40:29.397Z,7.600
2023-05-05T12:41:29.565Z,7.600
2023-05-05T12:42:29.764Z,8.700
2023-05-05T12:43:29.005Z,8.300
2023-05-05T12:44:29.313Z,7.800
2023-05-05T12:45:29.613Z,8.600
2023-05-05T12:46:29.415Z,9.000
2023-05-05T12:47:29.754Z,8.300
2023-05-05T12:48:29.133Z,7.900
2023-05-05T12:49:29.417Z,7.700
2023-05-05T12:50:29.908Z,8.800
2023-05-05T12:51:29.206Z,8.000
2023-05-05T12:52:29.376Z,7.800
2023-05-05T12:53:29.535Z,8.500
2023-05-05T12:54:30.707Z,8.200
2023-05-05T12:56:29.160Z,8.800
2023-05-05T12:57:29.443Z,8.300
2023-05-05T12:58:29.657Z,7.900
2023-05-05T12:59:28.866Z,8.400
2023-05-05T13:00:29.265Z,7.500
2023-05-05T13:01:31.378Z,7.300
2023-05-05T13:02:30.089Z,8.700
2023-05-05T13:03:29.967Z,8.000
2023-05-05T13:04:29.319Z,8.100
2023-05-05T13:05:29.604Z,8.100
2023-05-05T13:06:28.828Z,8.300
2023-05-05T13:07:30.763Z,7.700
2023-05-05T13:08:28.841Z,8.300
2023-05-05T13:09:29.111Z,8.700
2023-05-05T13:10:29.461Z,7.300
2023-05-05T13:11:29.640Z,7.500
2023-05-05T13:12:28.733Z,7.600
2023-05-05T13:13:29.048Z,7.300
2023-05-05T13:14:29.211Z,7.300
2023-05-05T13:15:29.520Z,7.900
2023-05-05T13:16:29.744Z,7.200
2023-05-05T13:17:29.091Z,7.000
2023-05-05T13:18:29.332Z,6.900
2023-05-05T13:19:29.514Z,7.600
2023-05-05T13:20:29.740Z,7.000
2023-05-05T13:21:28.886Z,6.700
2023-05-05T13:22:29.170Z,6.800
2023-05-05T13:23:29.416Z,7.300
2023-05-05T13:24:52.083Z,6.700
2023-05-05T13:27:41.185Z,6.600
2023-05-05T13:28:41.365Z,7.200
2023-05-05T13:29:48.733Z,6.800
2023-05-05T13:32:43.315Z,6.400
2023-05-05T13:33:42.250Z,5.500
2023-05-05T13:34:41.532Z,5.900
2023-05-05T13:35:42.068Z,6.000
2023-05-05T13:36:41.215Z,6.300
2023-05-05T13:37:41.462Z,5.500
2023-05-05T13:38:41.694Z,4.300